createdAt,value
2022-12-04T00:04:04.024Z,4.60
2022-12-04T00:06:30.794Z,4.70
2022-12-04T00:08:57.765Z,4.70
2022-12-04T00:11:28.250Z,4.70
2022-12-04T00:13:55.080Z,4.70
2022-12-04T00:16:23.958Z,4.70
2022-12-04T00:18:52.895Z,4.60
2022-12-04T00:21:19.828Z,4.70
2022-12-04T00:23:46.819Z,4.70
2022-12-04T00:26:15.748Z,4.70
2022-12-04T00:28:42.545Z,4.60
2022-12-04T00:31:11.741Z,4.60
2022-12-04T00:33:38.519Z,4.60
2022-12-04T00:36:07.591Z,4.70
2022-12-04T00:38:34.609Z,4.60
2022-12-04T00:41:01.390Z,4.70
2022-12-04T00:43:28.254Z,4.70
2022-12-04T00:45:54.983Z,4.80
2022-12-04T00:48:22.021Z,4.80
2022-12-04T00:50:48.827Z,4.90
2022-12-04T00:53:15.985Z,4.90
2022-12-04T00:55:43.362Z,4.90
2022-12-04T00:58:10.523Z,4.90
2022-12-04T01:00:39.213Z,4.90
2022-12-04T01:03:06.356Z,4.90
2022-12-04T01:05:33.176Z,4.90
2022-12-04T01:08:00.044Z,4.80
2022-12-04T01:10:26.862Z,4.80
2022-12-04T01:12:53.680Z,4.80
2022-12-04T01:15:20.407Z,4.70
2022-12-04T01:17:47.072Z,4.80
2022-12-04T01:20:14.415Z,4.80
2022-12-04T01:22:41.289Z,4.80
2022-12-04T01:25:08.475Z,4.90
2022-12-04T01:27:35.178Z,4.90
2022-12-04T01:30:01.879Z,4.90
2022-12-04T01:32:28.948Z,4.90
2022-12-04T01:34:55.654Z,4.90
2022-12-04T01:37:22.351Z,4.90
2022-12-04T01:39:49.057Z,4.90
2022-12-04T01:42:16.020Z,4.90
2022-12-04T01:44:44.432Z,4.80
2022-12-04T01:47:11.580Z,4.80
2022-12-04T01:49:45.223Z,4.80
2022-12-04T01:52:19.200Z,4.90
2022-12-04T01:54:47.879Z,5.00
2022-12-04T01:57:15.768Z,5.00
2022-12-04T01:59:49.355Z,5.00
2022-12-04T02:02:19.023Z,5.00
2022-12-04T02:04:45.937Z,5.00
2022-12-04T02:07:12.799Z,5.10
2022-12-04T02:09:39.667Z,5.10
2022-12-04T02:12:24.359Z,5.10
2022-12-04T02:15:09.689Z,5.00
2022-12-04T02:18:03.972Z,4.90
2022-12-04T02:21:29.540Z,4.90
2022-12-04T02:24:23.222Z,4.90
2022-12-04T02:26:52.768Z,4.90
2022-12-04T02:29:22.163Z,4.90
2022-12-04T02:31:55.610Z,4.90
2022-12-04T02:34:55.431Z,4.90
2022-12-04T02:37:27.534Z,4.80
2022-12-04T02:40:12.108Z,4.80
2022-12-04T02:42:48.669Z,4.80
2022-12-04T02:45:26.760Z,4.80
2022-12-04T02:47:53.578Z,4.80
2022-12-04T02:50:22.237Z,4.80
2022-12-04T02:52:54.569Z,4.90
2022-12-04T02:55:34.405Z,4.90
2022-12-04T02:58:04.737Z,4.80
2022-12-04T03:00:31.390Z,4.70
2022-12-04T03:03:14.495Z,4.80
2022-12-04T03:05:58.696Z,4.80
2022-12-04T03:08:32.073Z,4.90
2022-12-04T03:11:00.639Z,4.90
2022-12-04T03:13:40.004Z,4.80
2022-12-04T03:16:27.298Z,4.80
2022-12-04T03:19:02.462Z,4.80
2022-12-04T03:21:31.450Z,4.80
2022-12-04T03:24:27.782Z,4.80
2022-12-04T03:27:03.496Z,4.80
2022-12-04T03:29:39.388Z,4.80
2022-12-04T03:32:32.930Z,4.70
2022-12-04T03:35:11.408Z,4.80
2022-12-04T03:37:48.994Z,4.80
2022-12-04T03:40:37.359Z,4.80
2022-12-04T03:43:25.659Z,4.70
2022-12-04T03:45:58.479Z,4.70
2022-12-04T03:48:41.482Z,4.70
2022-12-04T03:51:35.930Z,4.70
2022-12-04T03:54:10.111Z,4.70
2022-12-04T03:56:41.713Z,4.70
2022-12-04T03:59:28.458Z,4.70
2022-12-04T04:01:56.314Z,4.70
2022-12-04T04:04:42.651Z,4.70
2022-12-04T04:07:14.775Z,4.70
2022-12-04T04:09:42.800Z,4.70
2022-12-04T04:12:20.357Z,4.70
2022-12-04T04:15:13.544Z,4.70
2022-12-04T04:18:01.233Z,4.70
2022-12-04T04:20:55.933Z,4.80
2022-12-04T04:23:41.529Z,4.70
2022-12-04T04:26:08.379Z,4.70
2022-12-04T04:28:37.087Z,4.70
2022-12-04T04:31:31.669Z,4.70
2022-12-04T04:34:20.588Z,4.70
2022-12-04T04:37:03.838Z,4.80
2022-12-04T04:39:39.334Z,4.80
2022-12-04T04:42:08.762Z,4.80
2022-12-04T04:44:47.418Z,4.80
2022-12-04T04:47:24.125Z,4.80
2022-12-04T04:49:50.775Z,4.80
2022-12-04T04:52:17.942Z,4.80
2022-12-04T04:54:44.770Z,4.70
2022-12-04T04:57:11.432Z,4.70
2022-12-04T04:59:38.162Z,4.70
2022-12-04T05:02:04.983Z,4.70
2022-12-04T05:04:31.817Z,4.70
2022-12-04T05:06:58.556Z,4.70
2022-12-04T05:09:26.342Z,4.70
2022-12-04T05:11:53.106Z,4.70
2022-12-04T05:14:19.774Z,4.70
2022-12-04T05:16:46.456Z,4.80
2022-12-04T05:19:31.695Z,4.80
2022-12-04T05:21:58.417Z,4.80
2022-12-04T05:24:25.314Z,4.80
2022-12-04T05:26:52.042Z,4.80
2022-12-04T05:29:18.742Z,4.90
2022-12-04T05:31:45.552Z,4.90
2022-12-04T05:34:12.296Z,4.90
2022-12-04T05:36:39.107Z,4.80
2022-12-04T05:39:05.900Z,4.90
2022-12-04T05:41:32.539Z,4.90
2022-12-04T05:43:59.334Z,5.00
2022-12-04T05:46:26.116Z,4.90
2022-12-04T05:48:52.824Z,4.90
2022-12-04T05:51:19.528Z,5.00
2022-12-04T05:53:46.306Z,5.00
2022-12-04T05:56:13.103Z,5.10
2022-12-04T05:58:39.861Z,5.20
2022-12-04T06:01:18.157Z,5.10
2022-12-04T06:03:45.060Z,5.10
2022-12-04T06:06:20.960Z,5.10
2022-12-04T06:08:48.758Z,5.10
2022-12-04T06:11:17.355Z,5.10
2022-12-04T06:13:44.743Z,5.10
2022-12-04T06:16:20.048Z,5.00
2022-12-04T06:18:51.712Z,5.00
2022-12-04T06:21:18.618Z,5.00
2022-12-04T06:23:45.403Z,5.00
2022-12-04T06:26:12.217Z,5.00
2022-12-04T06:28:39.201Z,4.90
2022-12-04T06:31:10.609Z,5.00
2022-12-04T06:33:38.560Z,5.00
2022-12-04T06:36:10.928Z,5.00
2022-12-04T06:38:38.716Z,5.00
2022-12-04T06:41:06.389Z,4.90
2022-12-04T06:43:33.157Z,4.90
2022-12-04T06:46:01.081Z,5.00
2022-12-04T06:48:29.348Z,4.90
2022-12-04T06:51:18.430Z,4.90
2022-12-04T06:53:45.526Z,5.00
2022-12-04T06:56:14.408Z,5.10
2022-12-04T06:58:41.159Z,5.10
2022-12-04T07:01:11.894Z,5.00
2022-12-04T07:03:38.697Z,5.00
2022-12-04T07:06:13.402Z,5.00
2022-12-04T07:08:40.209Z,5.00
2022-12-04T07:11:06.963Z,5.00
2022-12-04T07:13:33.740Z,5.00
2022-12-04T07:16:01.936Z,5.00
2022-12-04T07:18:29.715Z,5.00
2022-12-04T07:20:56.575Z,5.10
2022-12-04T07:23:23.331Z,5.10
2022-12-04T07:25:50.091Z,5.10
2022-12-04T07:28:16.802Z,5.20
2022-12-04T07:30:43.830Z,5.10
2022-12-04T07:33:10.694Z,5.20
2022-12-04T07:35:37.385Z,5.20
2022-12-04T07:38:04.043Z,5.30
2022-12-04T07:40:30.848Z,5.30
2022-12-04T07:42:57.597Z,5.30
2022-12-04T07:45:24.305Z,5.30
2022-12-04T07:47:51.016Z,5.30
2022-12-04T07:50:17.794Z,5.40
2022-12-04T07:52:45.684Z,5.40
2022-12-04T07:55:12.424Z,5.50
2022-12-04T07:57:39.244Z,5.50
2022-12-04T08:00:06.586Z,5.50
2022-12-04T08:02:33.319Z,5.50
2022-12-04T08:05:00.179Z,5.50
2022-12-04T08:07:27.160Z,5.50
2022-12-04T08:09:54.260Z,5.50
2022-12-04T08:12:21.294Z,5.50
2022-12-04T08:14:49.544Z,5.60
2022-12-04T08:17:16.480Z,5.70
2022-12-04T08:19:43.253Z,5.70
2022-12-04T08:22:10.128Z,5.70
2022-12-04T08:24:36.821Z,5.70
2022-12-04T08:27:03.557Z,5.70
2022-12-04T08:29:30.251Z,5.80
2022-12-04T08:31:57.117Z,5.80
2022-12-04T08:34:23.821Z,5.80
2022-12-04T08:36:50.577Z,5.90
2022-12-04T08:39:17.261Z,5.90
2022-12-04T08:41:43.984Z,5.90
2022-12-04T08:44:10.654Z,6.00
2022-12-04T08:46:38.080Z,6.00
2022-12-04T08:49:04.876Z,6.10
2022-12-04T08:51:33.809Z,6.10
2022-12-04T08:54:02.654Z,6.20
2022-12-04T08:56:30.162Z,6.30
2022-12-04T08:58:57.209Z,6.30
2022-12-04T09:01:24.257Z,6.40
2022-12-04T09:03:51.142Z,6.50
2022-12-04T09:06:17.952Z,6.50
2022-12-04T09:08:44.793Z,6.60
2022-12-04T09:11:13.362Z,6.70
2022-12-04T09:13:40.388Z,6.70
2022-12-04T09:16:09.008Z,6.80
2022-12-04T09:18:36.471Z,6.80
2022-12-04T09:21:05.502Z,6.80
2022-12-04T09:23:32.362Z,6.90
2022-12-04T09:25:59.084Z,6.90
2022-12-04T09:28:25.861Z,7.00
2022-12-04T09:31:06.570Z,7.00
2022-12-04T09:33:33.345Z,7.00
2022-12-04T09:36:00.851Z,7.10
2022-12-04T09:38:28.165Z,7.10
2022-12-04T09:40:56.509Z,7.10
2022-12-04T09:43:49.977Z,7.10
2022-12-04T09:46:25.271Z,7.20
2022-12-04T09:48:52.032Z,7.20
2022-12-04T09:51:20.413Z,7.20
2022-12-04T09:54:20.300Z,7.30
2022-12-04T09:57:01.408Z,7.40
2022-12-04T09:59:29.762Z,7.40
2022-12-04T10:01:58.737Z,7.50
2022-12-04T10:04:25.539Z,7.60
2022-12-04T10:07:13.028Z,7.60
2022-12-04T10:09:45.862Z,7.70
2022-12-04T10:12:45.183Z,7.70
2022-12-04T10:15:20.366Z,7.80
2022-12-04T10:18:21.356Z,7.80
2022-12-04T10:21:13.297Z,7.90
2022-12-04T10:23:42.950Z,7.90
2022-12-04T10:26:15.921Z,8.00
2022-12-04T10:28:51.998Z,8.00
2022-12-04T10:31:21.818Z,8.10
2022-12-04T10:33:53.929Z,8.10
2022-12-04T10:36:21.905Z,8.10
2022-12-04T10:38:54.109Z,8.20
2022-12-04T10:41:41.089Z,8.20
2022-12-04T10:44:10.108Z,8.20
2022-12-04T10:46:40.576Z,8.20
2022-12-04T10:49:23.310Z,8.20
2022-12-04T10:51:50.251Z,8.30
2022-12-04T10:54:35.881Z,8.40
2022-12-04T10:57:04.629Z,8.50
2022-12-04T10:59:31.429Z,8.50
2022-12-04T11:02:07.147Z,8.50
2022-12-04T11:04:34.209Z,8.60
2022-12-04T11:07:05.949Z,8.70
2022-12-04T11:09:32.788Z,8.70
2022-12-04T11:12:16.113Z,8.80
2022-12-04T11:14:46.764Z,8.80
2022-12-04T11:17:17.364Z,9.00
2022-12-04T11:19:44.143Z,9.00
2022-12-04T11:22:14.809Z,9.10
2022-12-04T11:24:42.761Z,9.10
2022-12-04T11:27:31.741Z,9.20
2022-12-04T11:30:00.940Z,9.40
2022-12-04T11:32:32.725Z,9.50
2022-12-04T11:35:07.586Z,9.60
2022-12-04T11:37:34.581Z,9.70
2022-12-04T11:40:03.623Z,9.80
2022-12-04T11:42:30.953Z,9.90
2022-12-04T11:45:02.444Z,10.00
2022-12-04T11:47:31.557Z,10.20
2022-12-04T11:50:05.559Z,10.20
2022-12-04T11:53:04.817Z,10.40
2022-12-04T11:55:57.317Z,10.50
2022-12-04T11:58:38.960Z,10.60
2022-12-04T12:01:24.625Z,10.70
2022-12-04T12:04:19.283Z,10.80
2022-12-04T12:07:06.327Z,10.90
2022-12-04T12:09:56.588Z,10.90
2022-12-04T12:12:37.396Z,11.00
2022-12-04T12:15:26.133Z,11.10
2022-12-04T12:18:19.248Z,11.20
2022-12-04T12:20:59.707Z,11.30
2022-12-04T12:23:56.353Z,11.20
2022-12-04T12:26:24.666Z,11.20
2022-12-04T12:29:04.731Z,11.20
2022-12-04T12:31:41.302Z,11.30
2022-12-04T12:34:11.355Z,11.40
2022-12-04T12:36:45.820Z,11.40
2022-12-04T12:39:46.365Z,11.40
2022-12-04T12:42:17.907Z,11.40
2022-12-04T12:44:55.833Z,11.40
2022-12-04T12:47:25.330Z,11.50
2022-12-04T12:49:54.918Z,11.60
2022-12-04T12:52:47.591Z,11.60
2022-12-04T12:55:26.267Z,11.60
2022-12-04T12:58:15.331Z,11.60
2022-12-04T13:00:55.805Z,11.70
2022-12-04T13:03:59.503Z,11.80
2022-12-04T13:06:31.132Z,11.80
2022-12-04T13:09:25.657Z,11.90
2022-12-04T13:11:54.335Z,11.90
2022-12-04T13:14:21.016Z,11.90
2022-12-04T13:16:54.489Z,12.00
2022-12-04T13:19:37.031Z,12.00
2022-12-04T13:22:24.121Z,12.00
2022-12-04T13:25:04.128Z,12.00
2022-12-04T13:27:54.939Z,12.00
2022-12-04T13:30:28.671Z,12.00
2022-12-04T13:33:14.329Z,12.00
2022-12-04T13:35:47.104Z,12.10
2022-12-04T13:38:42.132Z,12.00
2022-12-04T13:41:10.874Z,12.00
2022-12-04T13:43:48.288Z,11.90
2022-12-04T13:46:26.154Z,11.80
2022-12-04T13:48:52.912Z,11.80
2022-12-04T13:51:35.222Z,11.70
2022-12-04T13:54:11.085Z,11.60
2022-12-04T13:56:38.803Z,11.60
2022-12-04T13:59:19.431Z,11.60
2022-12-04T14:01:47.220Z,11.60
2022-12-04T14:04:45.619Z,11.60
2022-12-04T14:07:27.620Z,11.60
2022-12-04T14:09:54.625Z,11.60
2022-12-04T14:12:29.327Z,11.50
2022-12-04T14:15:21.909Z,11.50
2022-12-04T14:18:11.227Z,11.40
2022-12-04T14:20:38.385Z,11.40
2022-12-04T14:23:26.035Z,11.40
2022-12-04T14:25:59.064Z,11.30
2022-12-04T14:28:36.002Z,11.20
2022-12-04T14:31:33.497Z,11.10
2022-12-04T14:34:03.170Z,11.00
2022-12-04T14:36:37.164Z,10.90
2022-12-04T14:39:14.806Z,10.90
2022-12-04T14:41:43.955Z,10.90
2022-12-04T14:44:26.474Z,10.90
2022-12-04T14:50:26.201Z,10.90
2022-12-04T14:53:11.783Z,11.00
2022-12-04T14:55:56.077Z,10.90
2022-12-04T14:58:31.645Z,10.80
2022-12-04T15:01:03.060Z,10.80
2022-12-04T15:03:37.075Z,10.80
2022-12-04T15:06:08.590Z,10.70
2022-12-04T15:08:35.439Z,10.70
2022-12-04T15:11:20.443Z,10.70
2022-12-04T15:13:47.149Z,10.60
2022-12-04T15:16:20.865Z,10.60
2022-12-04T15:18:57.925Z,10.50
2022-12-04T15:21:38.120Z,10.50
2022-12-04T15:24:09.528Z,10.40
2022-12-04T15:26:36.318Z,10.40
2022-12-04T15:29:03.659Z,10.40
2022-12-04T15:31:56.901Z,10.30
2022-12-04T15:34:54.057Z,10.30
2022-12-04T15:37:28.675Z,10.30
2022-12-04T15:39:56.030Z,10.20
2022-12-04T15:42:22.969Z,10.10
2022-12-04T15:44:53.564Z,10.00
2022-12-04T15:47:21.921Z,10.00
2022-12-04T15:49:48.692Z,10.00
2022-12-04T15:52:22.919Z,9.90
2022-12-04T15:54:57.989Z,9.90
2022-12-04T15:57:30.992Z,9.90
2022-12-04T16:00:01.186Z,9.80
2022-12-04T16:02:40.803Z,9.80
2022-12-04T16:05:22.572Z,9.70
2022-12-04T16:07:51.045Z,9.70
2022-12-04T16:10:21.657Z,9.70
2022-12-04T16:12:56.087Z,9.70
2022-12-04T16:15:23.349Z,9.70
2022-12-04T16:17:50.091Z,9.70
2022-12-04T16:20:16.993Z,9.60
2022-12-04T16:22:43.772Z,9.50
2022-12-04T16:25:11.697Z,9.50
2022-12-04T16:27:38.493Z,9.40
2022-12-04T16:30:05.925Z,9.40
2022-12-04T16:32:33.488Z,9.40
2022-12-04T16:35:00.439Z,9.40
2022-12-04T16:37:27.318Z,9.30
2022-12-04T16:39:54.147Z,9.40
2022-12-04T16:42:23.700Z,9.40
2022-12-04T16:44:50.586Z,9.40
2022-12-04T16:47:17.536Z,9.30
2022-12-04T16:49:44.820Z,9.30
2022-12-04T16:52:11.966Z,9.40
2022-12-04T16:54:39.628Z,9.40
2022-12-04T16:57:07.240Z,9.50
2022-12-04T16:59:34.174Z,9.50
2022-12-04T17:02:01.412Z,9.50
2022-12-04T17:04:28.478Z,9.50
2022-12-04T17:06:55.287Z,9.50
2022-12-04T17:09:22.154Z,9.40
2022-12-04T17:11:48.870Z,9.30
2022-12-04T17:14:15.549Z,9.20
2022-12-04T17:16:43.115Z,9.20
2022-12-04T17:19:10.424Z,9.10
2022-12-04T17:21:37.203Z,9.10
2022-12-04T17:24:04.138Z,9.00
2022-12-04T17:26:30.901Z,9.00
2022-12-04T17:28:57.542Z,8.90
2022-12-04T17:31:25.455Z,8.90
2022-12-04T17:33:52.626Z,8.80
2022-12-04T17:36:21.222Z,8.80
2022-12-04T17:38:48.176Z,8.70
2022-12-04T17:41:15.227Z,8.70
2022-12-04T17:43:42.962Z,8.70
2022-12-04T17:46:11.331Z,8.70
2022-12-04T17:48:38.246Z,8.60
2022-12-04T17:51:15.992Z,8.60
2022-12-04T17:53:42.782Z,8.60
2022-12-04T17:56:14.616Z,8.60
2022-12-04T17:58:41.320Z,8.60
2022-12-04T18:01:11.797Z,8.60
2022-12-04T18:03:38.768Z,8.60
2022-12-04T18:06:22.108Z,8.70
2022-12-04T18:08:50.444Z,8.70
2022-12-04T18:11:20.557Z,8.70
2022-12-04T18:13:48.994Z,8.70
2022-12-04T18:16:16.029Z,8.80
2022-12-04T18:18:42.983Z,8.80
2022-12-04T18:21:10.892Z,8.80
2022-12-04T18:23:40.104Z,8.70
2022-12-04T18:26:07.009Z,8.70
2022-12-04T18:28:33.723Z,8.70
2022-12-04T18:31:04.893Z,8.70
2022-12-04T18:33:35.520Z,8.60
2022-12-04T18:36:02.490Z,8.60
2022-12-04T18:38:32.807Z,8.60
2022-12-04T18:41:03.623Z,8.50
2022-12-04T18:43:32.660Z,8.40
2022-12-04T18:46:07.619Z,8.30
2022-12-04T18:48:34.962Z,8.30
2022-12-04T18:51:01.806Z,8.20
2022-12-04T18:53:28.607Z,8.10
2022-12-04T18:55:55.376Z,8.10
2022-12-04T18:58:22.971Z,8.10
2022-12-04T19:00:51.739Z,8.20
2022-12-04T19:03:18.591Z,8.20
2022-12-04T19:05:51.604Z,8.20
2022-12-04T19:08:18.479Z,8.10
2022-12-04T19:10:45.249Z,8.10
2022-12-04T19:13:11.927Z,8.00
2022-12-04T19:15:43.671Z,7.90
2022-12-04T19:18:11.878Z,7.80
2022-12-04T19:20:42.629Z,7.80
2022-12-04T19:23:09.339Z,7.80
2022-12-04T19:25:36.535Z,7.70
2022-12-04T19:28:04.091Z,7.70
2022-12-04T19:30:31.875Z,7.70
2022-12-04T19:32:58.621Z,7.70
2022-12-04T19:35:25.523Z,7.70
2022-12-04T19:37:53.209Z,7.70
2022-12-04T19:40:20.144Z,7.70
2022-12-04T19:42:46.900Z,7.70
2022-12-04T19:45:13.690Z,7.70
2022-12-04T19:47:40.481Z,7.70
2022-12-04T19:50:07.790Z,7.60
2022-12-04T19:52:34.601Z,7.50
2022-12-04T19:55:01.505Z,7.30
2022-12-04T19:57:28.283Z,7.30
2022-12-04T19:59:55.059Z,7.30
2022-12-04T20:02:21.937Z,7.30
2022-12-04T20:04:48.731Z,7.40
2022-12-04T20:07:15.425Z,7.40
2022-12-04T20:09:46.038Z,7.40
2022-12-04T20:12:15.612Z,7.40
2022-12-04T20:14:42.411Z,7.30
2022-12-04T20:17:09.731Z,7.20
2022-12-04T20:19:36.781Z,7.20
2022-12-04T20:22:03.522Z,7.10
2022-12-04T20:24:30.278Z,7.00
2022-12-04T20:26:57.064Z,7.00
2022-12-04T20:29:23.892Z,7.00
2022-12-04T20:31:50.638Z,7.00
2022-12-04T20:34:18.073Z,6.90
2022-12-04T20:36:45.779Z,7.00
2022-12-04T20:39:12.864Z,7.00
2022-12-04T20:41:39.565Z,7.00
2022-12-04T20:44:07.453Z,7.10
2022-12-04T20:46:36.518Z,7.00
2022-12-04T20:49:06.333Z,6.90
2022-12-04T20:51:38.831Z,6.90
2022-12-04T20:54:05.782Z,6.90
2022-12-04T20:56:36.806Z,6.80
2022-12-04T20:59:05.738Z,6.80
2022-12-04T21:01:33.291Z,6.80
2022-12-04T21:04:00.283Z,6.80
2022-12-04T21:06:34.538Z,6.80
2022-12-04T21:09:06.041Z,6.70
2022-12-04T21:11:37.809Z,6.70
2022-12-04T21:14:24.653Z,6.50
2022-12-04T21:16:51.455Z,6.60
2022-12-04T21:19:20.541Z,6.70
2022-12-04T21:21:47.395Z,6.70
2022-12-04T21:24:15.305Z,6.60
2022-12-04T21:26:42.409Z,6.60
2022-12-04T21:29:09.179Z,6.50
2022-12-04T21:31:36.207Z,6.50
2022-12-04T21:34:04.570Z,6.50
2022-12-04T21:36:31.283Z,6.50
2022-12-04T21:38:58.333Z,6.40
2022-12-04T21:41:45.445Z,6.30
2022-12-04T21:44:14.180Z,6.30
2022-12-04T21:46:40.988Z,6.40
2022-12-04T21:49:08.064Z,6.40
2022-12-04T21:54:21.733Z,6.40
2022-12-04T21:56:48.558Z,6.40
2022-12-04T21:59:15.438Z,6.20
2022-12-04T22:01:42.271Z,6.10
2022-12-04T22:04:09.040Z,6.20
2022-12-04T22:06:37.605Z,6.20
2022-12-04T22:09:09.028Z,6.30
2022-12-04T22:11:35.954Z,6.30
2022-12-04T22:14:02.718Z,6.30
2022-12-04T22:16:30.917Z,6.30
2022-12-04T22:18:58.287Z,6.20
2022-12-04T22:21:25.073Z,6.20
2022-12-04T22:23:56.121Z,6.10
2022-12-04T22:26:23.025Z,6.10
2022-12-04T22:28:49.791Z,6.00
2022-12-04T22:31:18.156Z,5.90
2022-12-04T22:33:48.826Z,5.90
2022-12-04T22:36:18.447Z,5.80
2022-12-04T22:39:07.679Z,5.80
2022-12-04T22:41:31.986Z,5.80
2022-12-04T22:43:58.671Z,5.90
2022-12-04T22:46:25.498Z,5.80
2022-12-04T22:48:52.269Z,5.60
2022-12-04T22:51:20.487Z,5.60
2022-12-04T22:53:52.145Z,5.50
2022-12-04T22:56:23.713Z,5.50
2022-12-04T22:58:50.857Z,5.60
2022-12-04T23:01:18.681Z,5.60
2022-12-04T23:03:46.000Z,5.50
2022-12-04T23:06:13.010Z,5.50
2022-12-04T23:08:40.408Z,5.40
2022-12-04T23:11:11.708Z,5.40
2022-12-04T23:13:38.738Z,5.40
2022-12-04T23:16:09.526Z,5.40
2022-12-04T23:18:36.932Z,5.40
2022-12-04T23:21:08.871Z,5.40
2022-12-04T23:23:41.182Z,5.40
2022-12-04T23:26:09.961Z,5.30
2022-12-04T23:28:36.801Z,5.30
2022-12-04T23:31:03.940Z,5.30
2022-12-04T23:33:30.960Z,5.20
2022-12-04T23:35:58.669Z,5.20
2022-12-04T23:38:25.667Z,5.20
2022-12-04T23:41:06.690Z,5.20
2022-12-04T23:43:33.787Z,5.20
2022-12-04T23:46:02.543Z,5.20
2022-12-04T23:48:32.636Z,5.20
2022-12-04T23:50:59.391Z,5.10
2022-12-04T23:53:26.232Z,5.00
2022-12-04T23:56:19.073Z,5.00
2022-12-04T23:58:46.835Z,5.00
